sensor_id;sensor_type;location;lat;lon;timestamp;pressure;altitude;pressure_sealevel;temperature;humidity
47761;BME280;33524;55.434;38.520;2022-08-03T00:00:29;100361.03;;;17.00;66.52
47761;BME280;33524;55.434;38.520;2022-08-03T00:02:58;100348.75;;;16.99;63.98
47761;BME280;33524;55.434;38.520;2022-08-03T00:05:25;100355.16;;;17.14;63.44
47761;BME280;33524;55.434;38.520;2022-08-03T00:07:53;100354.34;;;16.96;63.32
47761;BME280;33524;55.434;38.520;2022-08-03T00:10:22;100355.34;;;16.95;61.70
47761;BME280;33524;55.434;38.520;2022-08-03T00:12:49;100356.59;;;17.27;59.99
47761;BME280;33524;55.434;38.520;2022-08-03T00:15:17;100354.78;;;17.09;62.70
47761;BME280;33524;55.434;38.520;2022-08-03T00:17:45;100351.25;;;17.27;61.61
47761;BME280;33524;55.434;38.520;2022-08-03T00:20:22;100354.16;;;16.89;67.05
47761;BME280;33524;55.434;38.520;2022-08-03T00:23:08;100349.44;;;17.01;62.10
47761;BME280;33524;55.434;38.520;2022-08-03T00:25:36;100357.91;;;16.69;69.75
47761;BME280;33524;55.434;38.520;2022-08-03T00:28:04;100356.97;;;16.78;65.45
47761;BME280;33524;55.434;38.520;2022-08-03T00:30:35;100360.94;;;16.74;63.63
47761;BME280;33524;55.434;38.520;2022-08-03T00:33:03;100356.69;;;16.63;69.87
47761;BME280;33524;55.434;38.520;2022-08-03T00:35:30;100355.91;;;16.53;64.51
47761;BME280;33524;55.434;38.520;2022-08-03T00:38:17;100358.38;;;16.64;69.07
47761;BME280;33524;55.434;38.520;2022-08-03T00:40:45;100359.25;;;16.83;61.14
47761;BME280;33524;55.434;38.520;2022-08-03T00:43:13;100364.19;;;16.68;68.79
47761;BME280;33524;55.434;38.520;2022-08-03T00:45:42;100355.09;;;17.06;59.20
47761;BME280;33524;55.434;38.520;2022-08-03T00:48:10;100358.66;;;17.15;60.38
47761;BME280;33524;55.434;38.520;2022-08-03T00:50:58;100356.34;;;16.94;64.52
47761;BME280;33524;55.434;38.520;2022-08-03T00:53:26;100356.16;;;16.78;64.80
47761;BME280;33524;55.434;38.520;2022-08-03T00:55:54;100357.62;;;16.26;67.86
47761;BME280;33524;55.434;38.520;2022-08-03T00:58:22;100346.91;;;16.46;64.64
47761;BME280;33524;55.434;38.520;2022-08-03T01:00:50;100355.37;;;16.31;67.14
47761;BME280;33524;55.434;38.520;2022-08-03T01:03:18;100347.19;;;16.43;62.43
47761;BME280;33524;55.434;38.520;2022-08-03T01:11:16;100347.19;;;15.97;69.99
47761;BME280;33524;55.434;38.520;2022-08-03T01:13:53;100349.19;;;16.13;63.92
47761;BME280;33524;55.434;38.520;2022-08-03T01:16:51;100352.22;;;16.00;69.62
47761;BME280;33524;55.434;38.520;2022-08-03T01:24:58;100350.25;;;15.65;74.53
47761;BME280;33524;55.434;38.520;2022-08-03T01:27:20;100355.09;;;16.07;69.47
47761;BME280;33524;55.434;38.520;2022-08-03T01:29:51;100350.53;;;15.99;67.56
47761;BME280;33524;55.434;38.520;2022-08-03T01:35:27;100346.81;;;15.92;66.65
47761;BME280;33524;55.434;38.520;2022-08-03T01:37:56;100345.19;;;16.09;65.19
47761;BME280;33524;55.434;38.520;2022-08-03T01:40:29;100345.59;;;15.77;71.49
47761;BME280;33524;55.434;38.520;2022-08-03T01:42:59;100347.56;;;15.74;73.60
47761;BME280;33524;55.434;38.520;2022-08-03T01:45:28;100347.97;;;15.80;65.59
47761;BME280;33524;55.434;38.520;2022-08-03T01:48:00;100339.16;;;15.79;69.03
47761;BME280;33524;55.434;38.520;2022-08-03T01:50:29;100341.28;;;15.76;69.81
47761;BME280;33524;55.434;38.520;2022-08-03T01:52:57;100349.88;;;15.87;65.04
47761;BME280;33524;55.434;38.520;2022-08-03T01:55:26;100348.87;;;15.98;69.23
47761;BME280;33524;55.434;38.520;2022-08-03T01:57:55;100341.06;;;15.97;65.95
47761;BME280;33524;55.434;38.520;2022-08-03T02:00:35;100357.75;;;16.07;65.02
47761;BME280;33524;55.434;38.520;2022-08-03T02:03:04;100352.94;;;15.92;65.58
47761;BME280;33524;55.434;38.520;2022-08-03T02:05:33;100362.06;;;16.08;70.75
47761;BME280;33524;55.434;38.520;2022-08-03T02:08:01;100355.59;;;15.92;65.90
47761;BME280;33524;55.434;38.520;2022-08-03T02:10:31;100362.75;;;16.10;67.55
47761;BME280;33524;55.434;38.520;2022-08-03T02:13:02;100367.97;;;16.29;63.99
47761;BME280;33524;55.434;38.520;2022-08-03T02:15:32;100363.78;;;16.27;64.95
47761;BME280;33524;55.434;38.520;2022-08-03T02:18:04;100358.13;;;15.84;73.69
47761;BME280;33524;55.434;38.520;2022-08-03T02:20:32;100366.13;;;15.74;71.45
47761;BME280;33524;55.434;38.520;2022-08-03T02:23:03;100360.69;;;15.76;71.75
47761;BME280;33524;55.434;38.520;2022-08-03T02:25:34;100367.56;;;16.24;66.40
47761;BME280;33524;55.434;38.520;2022-08-03T02:28:07;100360.38;;;16.34;62.48
47761;BME280;33524;55.434;38.520;2022-08-03T02:30:37;100361.50;;;16.32;63.97
47761;BME280;33524;55.434;38.520;2022-08-03T02:33:07;100356.84;;;16.44;62.42
47761;BME280;33524;55.434;38.520;2022-08-03T02:35:37;100365.16;;;16.49;62.52
47761;BME280;33524;55.434;38.520;2022-08-03T02:38:07;100362.13;;;16.62;65.34
47761;BME280;33524;55.434;38.520;2022-08-03T02:40:36;100367.53;;;16.52;62.10
47761;BME280;33524;55.434;38.520;2022-08-03T02:43:06;100365.50;;;16.46;68.37
47761;BME280;33524;55.434;38.520;2022-08-03T02:45:37;100366.41;;;16.54;67.16
47761;BME280;33524;55.434;38.520;2022-08-03T02:48:11;100373.91;;;16.59;66.29
47761;BME280;33524;55.434;38.520;2022-08-03T02:50:43;100367.59;;;16.78;60.37
47761;BME280;33524;55.434;38.520;2022-08-03T02:53:11;100362.56;;;16.85;61.05
47761;BME280;33524;55.434;38.520;2022-08-03T02:55:39;100364.38;;;16.84;65.10
47761;BME280;33524;55.434;38.520;2022-08-03T02:58:12;100361.63;;;16.58;67.13
47761;BME280;33524;55.434;38.520;2022-08-03T03:00:40;100363.97;;;16.61;65.43
47761;BME280;33524;55.434;38.520;2022-08-03T03:03:10;100367.69;;;17.04;62.09
47761;BME280;33524;55.434;38.520;2022-08-03T03:05:40;100364.03;;;17.23;59.74
47761;BME280;33524;55.434;38.520;2022-08-03T03:08:21;100370.38;;;17.04;67.28
47761;BME280;33524;55.434;38.520;2022-08-03T03:10:53;100370.47;;;17.39;59.14
47761;BME280;33524;55.434;38.520;2022-08-03T03:13:22;100365.75;;;17.59;63.72
47761;BME280;33524;55.434;38.520;2022-08-03T03:15:51;100372.06;;;17.31;69.00
47761;BME280;33524;55.434;38.520;2022-08-03T03:18:19;100364.59;;;17.87;57.16
47761;BME280;33524;55.434;38.520;2022-08-03T03:20:50;100367.34;;;18.12;58.75
47761;BME280;33524;55.434;38.520;2022-08-03T03:23:22;100369.81;;;17.97;58.47
47761;BME280;33524;55.434;38.520;2022-08-03T03:25:51;100374.72;;;18.26;63.58
47761;BME280;33524;55.434;38.520;2022-08-03T03:28:19;100368.38;;;18.11;60.59
47761;BME280;33524;55.434;38.520;2022-08-03T03:30:48;100372.97;;;18.68;54.87
47761;BME280;33524;55.434;38.520;2022-08-03T03:33:20;100372.22;;;19.08;53.02
47761;BME280;33524;55.434;38.520;2022-08-03T03:35:48;100369.84;;;19.30;52.25
47761;BME280;33524;55.434;38.520;2022-08-03T03:38:16;100370.16;;;19.51;51.93
47761;BME280;33524;55.434;38.520;2022-08-03T03:40:45;100371.63;;;19.62;51.64
47761;BME280;33524;55.434;38.520;2022-08-03T03:43:12;100369.47;;;19.66;51.58
47761;BME280;33524;55.434;38.520;2022-08-03T03:45:40;100369.78;;;19.79;51.12
47761;BME280;33524;55.434;38.520;2022-08-03T03:48:26;100378.63;;;19.80;51.46
47761;BME280;33524;55.434;38.520;2022-08-03T03:50:54;100382.44;;;19.85;51.07
47761;BME280;33524;55.434;38.520;2022-08-03T03:53:23;100381.41;;;19.86;51.15
47761;BME280;33524;55.434;38.520;2022-08-03T03:55:51;100377.38;;;19.99;51.17
47761;BME280;33524;55.434;38.520;2022-08-03T03:58:29;100376.69;;;20.36;50.16
47761;BME280;33524;55.434;38.520;2022-08-03T04:00:58;100381.91;;;20.61;49.38
47761;BME280;33524;55.434;38.520;2022-08-03T04:03:26;100380.28;;;20.83;49.08
47761;BME280;33524;55.434;38.520;2022-08-03T04:05:54;100381.66;;;21.16;48.35
47761;BME280;33524;55.434;38.520;2022-08-03T04:08:41;100387.50;;;21.35;49.21
47761;BME280;33524;55.434;38.520;2022-08-03T04:11:29;100378.19;;;21.69;47.69
47761;BME280;33524;55.434;38.520;2022-08-03T04:14:02;100387.75;;;21.93;47.25
47761;BME280;33524;55.434;38.520;2022-08-03T04:16:32;100381.56;;;22.22;46.71
47761;BME280;33524;55.434;38.520;2022-08-03T04:19:05;100392.87;;;22.54;46.17
47761;BME280;33524;55.434;38.520;2022-08-03T04:21:34;100401.56;;;22.77;45.68
47761;BME280;33524;55.434;38.520;2022-08-03T04:24:05;100400.06;;;23.11;45.40
47761;BME280;33524;55.434;38.520;2022-08-03T04:26:36;100393.06;;;23.39;45.30
47761;BME280;33524;55.434;38.520;2022-08-03T04:29:06;100393.63;;;23.62;45.29
47761;BME280;33524;55.434;38.520;2022-08-03T04:31:35;100388.88;;;23.92;45.16
47761;BME280;33524;55.434;38.520;2022-08-03T04:34:04;100393.50;;;24.12;44.87
47761;BME280;33524;55.434;38.520;2022-08-03T04:36:35;100388.56;;;24.22;45.62
47761;BME280;33524;55.434;38.520;2022-08-03T04:39:05;100396.59;;;24.64;44.53
47761;BME280;33524;55.434;38.520;2022-08-03T04:41:35;100388.34;;;24.72;44.45
47761;BME280;33524;55.434;38.520;2022-08-03T04:44:23;100398.47;;;24.70;44.73
47761;BME280;33524;55.434;38.520;2022-08-03T04:46:55;100396.81;;;24.62;44.87
47761;BME280;33524;55.434;38.520;2022-08-03T04:49:23;100399.47;;;24.55;45.19
47761;BME280;33524;55.434;38.520;2022-08-03T04:51:51;100398.06;;;24.66;45.42
47761;BME280;33524;55.434;38.520;2022-08-03T04:54:19;100399.75;;;24.94;44.97
47761;BME280;33524;55.434;38.520;2022-08-03T04:56:47;100404.13;;;25.22;44.45
47761;BME280;33524;55.434;38.520;2022-08-03T04:59:15;100400.16;;;25.64;43.78
47761;BME280;33524;55.434;38.520;2022-08-03T05:01:44;100396.13;;;26.13;43.38
47761;BME280;33524;55.434;38.520;2022-08-03T05:04:12;100402.34;;;26.59;42.54
47761;BME280;33524;55.434;38.520;2022-08-03T05:06:39;100399.44;;;26.92;41.48
47761;BME280;33524;55.434;38.520;2022-08-03T05:09:17;100399.50;;;27.11;41.80
47761;BME280;33524;55.434;38.520;2022-08-03T05:12:05;100401.19;;;27.37;41.24
47761;BME280;33524;55.434;38.520;2022-08-03T05:14:33;100389.72;;;27.60;41.44
47761;BME280;33524;55.434;38.520;2022-08-03T05:17:04;100392.19;;;27.80;41.10
47761;BME280;33524;55.434;38.520;2022-08-03T05:19:32;100384.28;;;28.04;40.96
47761;BME280;33524;55.434;38.520;2022-08-03T05:22:00;100396.03;;;28.28;40.58
47761;BME280;33524;55.434;38.520;2022-08-03T05:24:28;100389.03;;;28.38;40.68
47761;BME280;33524;55.434;38.520;2022-08-03T05:26:55;100392.03;;;28.49;40.28
47761;BME280;33524;55.434;38.520;2022-08-03T05:29:23;100388.81;;;28.70;40.69
47761;BME280;33524;55.434;38.520;2022-08-03T05:31:51;100383.91;;;28.91;40.35
47761;BME280;33524;55.434;38.520;2022-08-03T05:34:18;100397.50;;;29.14;39.95
47761;BME280;33524;55.434;38.520;2022-08-03T05:36:47;100396.22;;;29.29;39.86
47761;BME280;33524;55.434;38.520;2022-08-03T05:39:14;100400.25;;;29.73;39.18
47761;BME280;33524;55.434;38.520;2022-08-03T05:41:42;100397.59;;;30.02;38.95
47761;BME280;33524;55.434;38.520;2022-08-03T05:44:10;100400.13;;;30.32;38.51
47761;BME280;33524;55.434;38.520;2022-08-03T05:46:38;100392.66;;;30.40;38.55
47761;BME280;33524;55.434;38.520;2022-08-03T05:49:05;100395.19;;;30.29;38.60
47761;BME280;33524;55.434;38.520;2022-08-03T05:51:34;100388.44;;;30.20;39.04
47761;BME280;33524;55.434;38.520;2022-08-03T05:54:01;100393.88;;;30.32;38.84
47761;BME280;33524;55.434;38.520;2022-08-03T05:56:29;100385.13;;;30.87;37.96
47761;BME280;33524;55.434;38.520;2022-08-03T05:58:57;100390.97;;;31.30;37.41
47761;BME280;33524;55.434;38.520;2022-08-03T06:01:45;100387.97;;;31.65;36.94
47761;BME280;33524;55.434;38.520;2022-08-03T06:04:13;100392.47;;;31.98;36.83
47761;BME280;33524;55.434;38.520;2022-08-03T06:06:41;100386.63;;;32.56;35.50
47761;BME280;33524;55.434;38.520;2022-08-03T06:09:09;100390.16;;;32.56;35.96
47761;BME280;33524;55.434;38.520;2022-08-03T06:11:38;100391.75;;;32.85;35.75
47761;BME280;33524;55.434;38.520;2022-08-03T06:14:06;100383.37;;;33.24;35.03
47761;BME280;33524;55.434;38.520;2022-08-03T06:16:34;100385.59;;;33.32;34.96
47761;BME280;33524;55.434;38.520;2022-08-03T06:19:02;100378.75;;;32.92;36.06
47761;BME280;33524;55.434;38.520;2022-08-03T06:21:30;100380.47;;;33.83;34.59
47761;BME280;33524;55.434;38.520;2022-08-03T06:23:58;100377.38;;;34.32;33.94
47761;BME280;33524;55.434;38.520;2022-08-03T06:26:28;100374.09;;;34.35;33.84
47761;BME280;33524;55.434;38.520;2022-08-03T06:28:56;100381.47;;;34.35;34.18
47761;BME280;33524;55.434;38.520;2022-08-03T06:31:25;100372.44;;;34.29;34.20
47761;BME280;33524;55.434;38.520;2022-08-03T06:34:00;100379.03;;;34.39;34.14
47761;BME280;33524;55.434;38.520;2022-08-03T06:36:48;100382.84;;;34.32;34.16
47761;BME280;33524;55.434;38.520;2022-08-03T06:39:19;100383.16;;;34.56;34.03
47761;BME280;33524;55.434;38.520;2022-08-03T06:41:50;100389.72;;;34.81;33.42
47761;BME280;33524;55.434;38.520;2022-08-03T06:44:18;100393.00;;;35.04;33.28
47761;BME280;33524;55.434;38.520;2022-08-03T06:46:46;100379.63;;;35.23;33.13
47761;BME280;33524;55.434;38.520;2022-08-03T06:49:14;100382.53;;;35.67;32.30
47761;BME280;33524;55.434;38.520;2022-08-03T06:51:42;100376.75;;;35.79;32.19
47761;BME280;33524;55.434;38.520;2022-08-03T06:54:30;100381.88;;;35.96;31.91
47761;BME280;33524;55.434;38.520;2022-08-03T06:56:59;100379.56;;;36.24;31.73
47761;BME280;33524;55.434;38.520;2022-08-03T06:59:27;100375.47;;;36.66;31.29
47761;BME280;33524;55.434;38.520;2022-08-03T07:02:16;100378.41;;;36.74;31.19
47761;BME280;33524;55.434;38.520;2022-08-03T07:04:46;100375.00;;;36.88;31.06
47761;BME280;33524;55.434;38.520;2022-08-03T07:07:14;100378.12;;;37.10;30.72
47761;BME280;33524;55.434;38.520;2022-08-03T07:09:42;100376.44;;;37.14;30.74
47761;BME280;33524;55.434;38.520;2022-08-03T07:12:27;100378.97;;;37.35;30.33
47761;BME280;33524;55.434;38.520;2022-08-03T07:14:56;100371.97;;;37.96;29.49
47761;BME280;33524;55.434;38.520;2022-08-03T07:17:33;100378.91;;;37.88;29.80
47761;BME280;33524;55.434;38.520;2022-08-03T07:20:03;100387.34;;;36.51;32.17
47761;BME280;33524;55.434;38.520;2022-08-03T07:22:31;100374.62;;;36.70;25.45
47761;BME280;33524;55.434;38.520;2022-08-03T07:24:59;100376.78;;;37.61;30.50
47761;BME280;33524;55.434;38.520;2022-08-03T07:27:29;100378.00;;;38.36;28.89
47761;BME280;33524;55.434;38.520;2022-08-03T07:29:57;100384.81;;;38.77;28.66
47761;BME280;33524;55.434;38.520;2022-08-03T07:32:44;100384.06;;;38.14;29.69
47761;BME280;33524;55.434;38.520;2022-08-03T07:35:16;100387.13;;;39.02;28.52
47761;BME280;33524;55.434;38.520;2022-08-03T07:37:52;100373.84;;;39.37;27.99
47761;BME280;33524;55.434;38.520;2022-08-03T07:40:21;100377.62;;;39.69;27.56
47761;BME280;33524;55.434;38.520;2022-08-03T07:42:53;100384.56;;;39.80;27.52
47761;BME280;33524;55.434;38.520;2022-08-03T07:45:21;100385.25;;;40.00;27.31
47761;BME280;33524;55.434;38.520;2022-08-03T07:47:49;100386.00;;;40.28;26.98
47761;BME280;33524;55.434;38.520;2022-08-03T07:50:20;100385.69;;;39.93;27.54
47761;BME280;33524;55.434;38.520;2022-08-03T07:52:48;100386.00;;;39.91;27.59
47761;BME280;33524;55.434;38.520;2022-08-03T07:55:19;100381.78;;;40.08;27.22
47761;BME280;33524;55.434;38.520;2022-08-03T07:57:58;100389.53;;;40.56;26.54
47761;BME280;33524;55.434;38.520;2022-08-03T08:00:26;100390.75;;;38.08;28.23
47761;BME280;33524;55.434;38.520;2022-08-03T08:02:54;100383.25;;;39.64;28.09
47761;BME280;33524;55.434;38.520;2022-08-03T08:05:21;100390.06;;;39.52;28.07
47761;BME280;33524;55.434;38.520;2022-08-03T08:07:49;100388.44;;;37.96;30.20
47761;BME280;33524;55.434;38.520;2022-08-03T08:10:18;100381.97;;;38.82;29.46
47761;BME280;33524;55.434;38.520;2022-08-03T08:12:46;100377.53;;;39.46;28.35
47761;BME280;33524;55.434;38.520;2022-08-03T08:15:14;100390.38;;;40.29;27.16
47761;BME280;33524;55.434;38.520;2022-08-03T08:17:52;100388.75;;;40.87;26.13
47761;BME280;33524;55.434;38.520;2022-08-03T08:20:24;100391.16;;;37.77;30.22
47761;BME280;33524;55.434;38.520;2022-08-03T08:22:58;100388.19;;;39.20;29.20
47761;BME280;33524;55.434;38.520;2022-08-03T08:25:28;100391.12;;;41.02;26.22
47761;BME280;33524;55.434;38.520;2022-08-03T08:27:56;100387.38;;;40.98;26.37
47761;BME280;33524;55.434;38.520;2022-08-03T08:30:44;100388.12;;;42.10;24.34
47761;BME280;33524;55.434;38.520;2022-08-03T08:33:12;100390.31;;;41.82;22.40
47761;BME280;33524;55.434;38.520;2022-08-03T08:35:51;100390.38;;;39.92;27.59
47761;BME280;33524;55.434;38.520;2022-08-03T08:38:19;100383.69;;;40.21;20.35
47761;BME280;33524;55.434;38.520;2022-08-03T08:40:48;100390.75;;;41.58;22.15
47761;BME280;33524;55.434;38.520;2022-08-03T08:43:16;100389.00;;;40.77;26.34
47761;BME280;33524;55.434;38.520;2022-08-03T08:45:43;100406.41;;;38.07;20.28
47761;BME280;33524;55.434;38.520;2022-08-03T08:48:12;100400.06;;;38.69;21.41
47761;BME280;33524;55.434;38.520;2022-08-03T08:50:41;100397.47;;;41.34;20.84
47761;BME280;33524;55.434;38.520;2022-08-03T08:53:09;100397.63;;;41.06;25.64
47761;BME280;33524;55.434;38.520;2022-08-03T08:55:46;100393.28;;;41.85;24.67
47761;BME280;33524;55.434;38.520;2022-08-03T08:58:29;100392.72;;;42.49;23.97
47761;BME280;33524;55.434;38.520;2022-08-03T09:01:01;100394.47;;;42.10;24.47
47761;BME280;33524;55.434;38.520;2022-08-03T09:03:31;100399.16;;;41.52;25.44
47761;BME280;33524;55.434;38.520;2022-08-03T09:06:03;100405.38;;;41.18;25.11
47761;BME280;33524;55.434;38.520;2022-08-03T09:08:32;100400.16;;;42.05;24.53
47761;BME280;33524;55.434;38.520;2022-08-03T09:10:59;100398.75;;;39.60;19.81
47761;BME280;33524;55.434;38.520;2022-08-03T09:13:27;100404.78;;;41.07;25.31
47761;BME280;33524;55.434;38.520;2022-08-03T09:18:41;100400.19;;;41.25;25.41
47761;BME280;33524;55.434;38.520;2022-08-03T09:23:58;100403.44;;;41.67;24.85
47761;BME280;33524;55.434;38.520;2022-08-03T09:26:32;100403.16;;;40.61;19.11
47761;BME280;33524;55.434;38.520;2022-08-03T09:29:04;100399.72;;;42.47;23.86
47761;BME280;33524;55.434;38.520;2022-08-03T09:31:43;100404.53;;;39.44;19.60
47761;BME280;33524;55.434;38.520;2022-08-03T09:34:15;100407.41;;;38.35;24.20
47761;BME280;33524;55.434;38.520;2022-08-03T09:36:48;100399.50;;;41.20;24.09
47761;BME280;33524;55.434;38.520;2022-08-03T09:39:17;100410.59;;;40.38;19.89
47761;BME280;33524;55.434;38.520;2022-08-03T09:42:25;100402.69;;;38.74;29.18
47761;BME280;33524;55.434;38.520;2022-08-03T09:44:53;100407.09;;;37.22;23.01
47761;BME280;33524;55.434;38.520;2022-08-03T09:47:28;100407.34;;;39.11;28.29
47761;BME280;33524;55.434;38.520;2022-08-03T09:50:03;100408.16;;;38.41;29.16
47761;BME280;33524;55.434;38.520;2022-08-03T09:52:33;100409.69;;;39.18;28.11
47761;BME280;33524;55.434;38.520;2022-08-03T09:55:15;100401.19;;;40.76;25.59
47761;BME280;33524;55.434;38.520;2022-08-03T09:58:06;100404.25;;;39.13;20.41
47761;BME280;33524;55.434;38.520;2022-08-03T10:03:23;100398.25;;;41.26;25.05
47761;BME280;33524;55.434;38.520;2022-08-03T10:05:51;100391.88;;;41.57;24.09
47761;BME280;33524;55.434;38.520;2022-08-03T10:08:26;100412.53;;;35.98;22.94
47761;BME280;33524;55.434;38.520;2022-08-03T10:10:53;100398.25;;;39.71;27.40
47761;BME280;33524;55.434;38.520;2022-08-03T10:13:40;100400.16;;;39.43;21.57
47761;BME280;33524;55.434;38.520;2022-08-03T10:16:08;100395.72;;;41.78;24.68
47761;BME280;33524;55.434;38.520;2022-08-03T10:18:51;100398.81;;;41.94;24.49
47761;BME280;33524;55.434;38.520;2022-08-03T10:21:19;100410.16;;;37.92;28.11
47761;BME280;33524;55.434;38.520;2022-08-03T10:23:47;100408.91;;;37.55;22.00
47761;BME280;33524;55.434;38.520;2022-08-03T10:26:16;100423.25;;;36.84;26.49
47761;BME280;33524;55.434;38.520;2022-08-03T10:28:47;100414.50;;;37.45;29.53
47761;BME280;33524;55.434;38.520;2022-08-03T10:31:15;100407.56;;;38.63;21.93
47761;BME280;33524;55.434;38.520;2022-08-03T10:33:47;100406.16;;;39.73;26.86
47761;BME280;33524;55.434;38.520;2022-08-03T10:36:22;100404.47;;;41.40;23.32
47761;BME280;33524;55.434;38.520;2022-08-03T10:38:51;100411.84;;;39.35;25.18
47761;BME280;33524;55.434;38.520;2022-08-03T10:41:20;100419.03;;;36.67;21.29
47761;BME280;33524;55.434;38.520;2022-08-03T10:43:58;100423.19;;;35.94;30.18
47761;BME280;33524;55.434;38.520;2022-08-03T10:46:29;100411.59;;;37.36;22.13
47761;BME280;33524;55.434;38.520;2022-08-03T10:48:59;100408.09;;;39.59;21.44
47761;BME280;33524;55.434;38.520;2022-08-03T10:51:27;100414.31;;;40.79;24.51
47761;BME280;33524;55.434;38.520;2022-08-03T10:53:58;100410.53;;;37.86;21.98
47761;BME280;33524;55.434;38.520;2022-08-03T10:59:18;100419.34;;;37.53;21.68
47761;BME280;33524;55.434;38.520;2022-08-03T11:01:54;100431.66;;;36.03;23.78
47761;BME280;33524;55.434;38.520;2022-08-03T11:04:27;100417.69;;;38.82;27.46
47761;BME280;33524;55.434;38.520;2022-08-03T11:09:50;100418.22;;;37.60;22.08
47761;BME280;33524;55.434;38.520;2022-08-03T11:12:22;100420.41;;;37.63;21.70
47761;BME280;33524;55.434;38.520;2022-08-03T11:15:02;100424.97;;;35.03;23.80
47761;BME280;33524;55.434;38.520;2022-08-03T11:17:32;100429.81;;;34.45;30.80
47761;BME280;33524;55.434;38.520;2022-08-03T11:23:07;100409.75;;;39.87;19.73
47761;BME280;33524;55.434;38.520;2022-08-03T11:28:24;100418.38;;;39.39;20.11
47761;BME280;33524;55.434;38.520;2022-08-03T11:30:54;100429.69;;;36.19;23.91
47761;BME280;33524;55.434;38.520;2022-08-03T11:33:28;100425.75;;;33.84;26.73
47761;BME280;33524;55.434;38.520;2022-08-03T11:36:00;100428.75;;;34.61;31.92
47761;BME280;33524;55.434;38.520;2022-08-03T11:38:28;100417.53;;;33.79;26.56
47761;BME280;33524;55.434;38.520;2022-08-03T11:40:56;100421.09;;;33.37;29.37
47761;BME280;33524;55.434;38.520;2022-08-03T11:45:58;100407.09;;;37.75;22.53
47761;BME280;33524;55.434;38.520;2022-08-03T11:48:37;100413.53;;;37.36;23.64
47761;BME280;33524;55.434;38.520;2022-08-03T11:51:06;100410.44;;;37.13;23.19
47761;BME280;33524;55.434;38.520;2022-08-03T11:53:45;100418.06;;;36.43;24.73
47761;BME280;33524;55.434;38.520;2022-08-03T11:56:15;100417.38;;;35.21;26.49
47761;BME280;33524;55.434;38.520;2022-08-03T11:58:47;100421.41;;;35.08;26.99
47761;BME280;33524;55.434;38.520;2022-08-03T12:01:35;100415.69;;;35.40;26.76
47761;BME280;33524;55.434;38.520;2022-08-03T12:04:04;100417.59;;;35.09;25.17
47761;BME280;33524;55.434;38.520;2022-08-03T12:06:32;100413.50;;;34.75;24.46
47761;BME280;33524;55.434;38.520;2022-08-03T12:09:23;100411.31;;;35.03;24.57
47761;BME280;33524;55.434;38.520;2022-08-03T12:11:51;100402.19;;;35.85;24.87
47761;BME280;33524;55.434;38.520;2022-08-03T12:14:27;100407.53;;;36.60;24.13
47761;BME280;33524;55.434;38.520;2022-08-03T12:17:17;100397.41;;;36.16;23.28
47761;BME280;33524;55.434;38.520;2022-08-03T12:19:46;100407.47;;;34.68;23.93
47761;BME280;33524;55.434;38.520;2022-08-03T12:22:13;100408.78;;;33.72;25.12
47761;BME280;33524;55.434;38.520;2022-08-03T12:24:43;100406.59;;;32.99;25.28
47761;BME280;33524;55.434;38.520;2022-08-03T12:27:23;100411.78;;;33.01;25.69
47761;BME280;33524;55.434;38.520;2022-08-03T12:29:52;100407.28;;;32.30;26.55
47761;BME280;33524;55.434;38.520;2022-08-03T12:32:38;100409.56;;;34.35;25.72
47761;BME280;33524;55.434;38.520;2022-08-03T12:35:06;100408.88;;;33.45;26.11
47761;BME280;33524;55.434;38.520;2022-08-03T12:37:51;100397.66;;;34.72;26.12
47761;BME280;33524;55.434;38.520;2022-08-03T12:40:25;100395.44;;;36.27;24.00
47761;BME280;33524;55.434;38.520;2022-08-03T12:42:55;100386.72;;;37.52;22.54
47761;BME280;33524;55.434;38.520;2022-08-03T12:45:23;100393.13;;;37.95;21.81
47761;BME280;33524;55.434;38.520;2022-08-03T12:47:58;100394.22;;;37.94;21.85
47761;BME280;33524;55.434;38.520;2022-08-03T12:50:27;100392.19;;;37.81;21.93
47761;BME280;33524;55.434;38.520;2022-08-03T12:52:58;100396.84;;;37.56;21.42
47761;BME280;33524;55.434;38.520;2022-08-03T12:55:26;100392.44;;;37.61;21.43
47761;BME280;33524;55.434;38.520;2022-08-03T12:58:33;100390.88;;;37.25;22.48
47761;BME280;33524;55.434;38.520;2022-08-03T13:01:02;100390.44;;;36.79;23.53
47761;BME280;33524;55.434;38.520;2022-08-03T13:03:40;100400.19;;;36.55;23.19
47761;BME280;33524;55.434;38.520;2022-08-03T13:06:12;100404.13;;;36.39;23.37
47761;BME280;33524;55.434;38.520;2022-08-03T13:08:41;100405.56;;;36.71;23.82
47761;BME280;33524;55.434;38.520;2022-08-03T13:14:10;100404.69;;;35.66;24.48
47761;BME280;33524;55.434;38.520;2022-08-03T13:16:42;100403.09;;;35.44;26.65
47761;BME280;33524;55.434;38.520;2022-08-03T13:19:10;100404.47;;;34.70;28.39
47761;BME280;33524;55.434;38.520;2022-08-03T13:21:42;100408.44;;;34.21;28.36
47761;BME280;33524;55.434;38.520;2022-08-03T13:24:31;100412.63;;;35.57;25.66
47761;BME280;33524;55.434;38.520;2022-08-03T13:26:59;100399.31;;;35.20;26.36
47761;BME280;33524;55.434;38.520;2022-08-03T13:29:49;100403.06;;;34.62;26.85
47761;BME280;33524;55.434;38.520;2022-08-03T13:32:17;100397.13;;;34.86;25.99
47761;BME280;33524;55.434;38.520;2022-08-03T13:34:45;100397.66;;;34.93;25.56
47761;BME280;33524;55.434;38.520;2022-08-03T13:37:16;100401.38;;;34.30;27.56
47761;BME280;33524;55.434;38.520;2022-08-03T13:40:01;100408.78;;;33.72;28.94
47761;BME280;33524;55.434;38.520;2022-08-03T13:42:32;100400.22;;;33.15;29.66